Time;durP1;ratioP1;P1;durP2;ratioP2;P2;SDS_P1;SDS_P2;PMS_P1;PMS_P2;Temp;Humidity;BMP_temperature;BMP_pressure;BME280_temperature;BME280_humidity;BME280_pressure;Samples;Min_cycle;Max_cycle;Signal;HPM_P1;HPM_P2
2022/10/19 00:00:01;;;;;;;33.88;18.00;;;;;;;;;;6295367;22;20015;-95
2022/10/19 00:02:39;;;;;;;36.42;19.30;;;;;;;;;;6319674;22;20011;-94
2022/10/19 00:10:46;;;;;;;29.00;16.58;;;;;;;;;;6234803;23;20020;-96
2022/10/19 00:15:57;;;;;;;29.00;17.88;;;;;;;;;;6232626;23;20152;-96
2022/10/19 00:18:55;;;;;;;26.02;16.00;;;;;;;;;;6211541;23;20004;-96
2022/10/19 00:27:02;;;;;;;28.65;17.73;;;;;;;;;;6295886;22;20014;-94
2022/10/19 00:29:56;;;;;;;27.85;16.50;;;;;;;;;;6285512;22;20486;-95
2022/10/19 00:38:17;;;;;;;;;;;;;;;;;;;;;
2022/10/19 00:48:57;;;;;;;46.38;24.17;;;;;;;;;;6291279;22;20047;-96
2022/10/19 00:54:00;;;;;;;44.70;24.80;;;;;;;;;;6317946;22;20015;-95
2022/10/19 01:02:49;;;;;;;41.65;22.25;;;;;;;;;;6200680;23;20086;-94
2022/10/19 01:08:36;;;;;;;42.17;23.58;;;;;;;;;;6232066;22;20020;-95
2022/10/19 01:11:20;;;;;;;37.08;21.02;;;;;;;;;;6231373;22;20154;-95
2022/10/19 01:16:56;;;;;;;42.70;22.42;;;;;;;;;;6318867;22;20015;-95
2022/10/19 01:28:52;;;;;;;35.97;19.70;;;;;;;;;;6339003;22;20034;-96
2022/10/19 01:34:15;;;;;;;;;;;;;;;;;;;;;
2022/10/19 01:37:07;;;;;;;30.55;18.00;;;;;;;;;;6199958;23;20029;-96
2022/10/19 01:40:03;;;;;;;30.70;16.42;;;;;;;;;;6170707;23;19998;-96
2022/10/19 01:42:54;;;;;;;24.42;14.60;;;;;;;;;;6238913;22;20433;-95
2022/10/19 01:45:39;;;;;;;;;;;;;;;;;;;;;
2022/10/19 01:48:37;;;;;;;22.73;13.70;;;;;;;;;;6295354;22;20003;-93
2022/10/19 01:51:22;;;;;;;26.83;13.68;;;;;;;;;;6271823;22;20023;-93
2022/10/19 01:56:37;;;;;;;20.25;12.63;;;;;;;;;;6326272;22;20023;-96
2022/10/19 01:59:23;;;;;;;28.27;14.20;;;;;;;;;;6294210;22;19999;-96
2022/10/19 02:01:51;;;;;;;21.10;12.02;;;;;;;;;;6275031;22;19995;-96
2022/10/19 02:04:28;;;;;;;18.80;12.00;;;;;;;;;;6300965;22;20124;-96
2022/10/19 02:07:01;;;;;;;22.02;12.85;;;;;;;;;;6296767;22;20014;-96
2022/10/19 02:15:22;;;;;;;19.60;11.38;;;;;;;;;;6292054;22;20067;-95
2022/10/19 02:21:09;;;;;;;;;;;;;;;;;;;;;
2022/10/19 02:24:19;;;;;;;18.13;9.98;;;;;;;;;;6285077;22;20047;-96
2022/10/19 02:27:10;;;;;;;19.60;10.13;;;;;;;;;;6134770;23;20005;-96
2022/10/19 02:32:14;;;;;;;16.05;9.40;;;;;;;;;;6298698;22;20111;-95
2022/10/19 05:05:37;;;;;;;8.13;3.70;;;;;;;;;;6309285;22;20034;-92
2022/10/19 05:08:03;;;;;;;6.47;3.47;;;;;;;;;;6282973;22;20420;-91
2022/10/19 05:10:29;;;;;;;5.85;3.15;;;;;;;;;;6282638;22;20473;-91
2022/10/19 05:12:56;;;;;;;4.88;3.33;;;;;;;;;;6282354;22;20007;-92
2022/10/19 05:15:22;;;;;;;5.85;3.83;;;;;;;;;;6282527;22;20004;-89
2022/10/19 05:17:48;;;;;;;5.90;3.50;;;;;;;;;;6282713;22;20022;-94
2022/10/19 05:20:14;;;;;;;6.80;3.70;;;;;;;;;;6282796;22;19999;-91
2022/10/19 05:22:40;;;;;;;5.22;3.58;;;;;;;;;;6283292;22;20031;-92
2022/10/19 05:25:07;;;;;;;7.47;3.72;;;;;;;;;;6282214;22;20006;-89
2022/10/19 05:27:33;;;;;;;10.50;4.35;;;;;;;;;;6282624;22;20003;-92
2022/10/19 05:29:59;;;;;;;9.77;4.10;;;;;;;;;;6282376;22;20003;-90
2022/10/19 05:32:29;;;;;;;9.18;4.55;;;;;;;;;;6282147;22;20141;-90
2022/10/19 05:34:55;;;;;;;6.75;4.30;;;;;;;;;;6281561;22;19999;-89
2022/10/19 05:37:21;;;;;;;8.68;4.78;;;;;;;;;;6281371;22;20034;-88
2022/10/19 05:39:50;;;;;;;11.45;5.90;;;;;;;;;;6282575;22;20061;-89
2022/10/19 05:42:16;;;;;;;8.20;4.72;;;;;;;;;;6281952;22;20083;-89
2022/10/19 05:44:45;;;;;;;8.43;4.25;;;;;;;;;;6281920;22;20528;-88
2022/10/19 05:47:11;;;;;;;7.40;4.70;;;;;;;;;;6282440;22;20007;-90
2022/10/19 05:49:39;;;;;;;6.55;3.80;;;;;;;;;;6282443;22;20238;-90
2022/10/19 05:52:09;;;;;;;6.82;3.58;;;;;;;;;;6282070;22;20088;-89
2022/10/19 05:54:36;;;;;;;4.95;2.80;;;;;;;;;;6282167;22;20011;-88
2022/10/19 05:57:02;;;;;;;5.80;3.70;;;;;;;;;;6282091;22;20072;-90
2022/10/19 05:59:28;;;;;;;7.57;3.70;;;;;;;;;;6281645;22;20023;-87
2022/10/19 06:02:00;;;;;;;7.07;4.32;;;;;;;;;;6309974;22;20405;-91
2022/10/19 06:04:33;;;;;;;8.45;4.90;;;;;;;;;;6281908;22;20012;-88
2022/10/19 06:07:08;;;;;;;7.80;4.70;;;;;;;;;;6282946;22;20309;-93
2022/10/19 06:09:35;;;;;;;7.75;3.95;;;;;;;;;;6281819;22;19999;-90
2022/10/19 06:12:02;;;;;;;7.38;4.30;;;;;;;;;;6282634;22;20004;-90
2022/10/19 06:14:31;;;;;;;5.95;3.83;;;;;;;;;;6281869;22;20008;-89
2022/10/19 06:16:57;;;;;;;6.50;3.85;;;;;;;;;;6277317;22;20022;-90
2022/10/19 06:19:23;;;;;;;13.88;4.60;;;;;;;;;;6282242;22;20006;-91
2022/10/19 06:21:55;;;;;;;9.98;3.80;;;;;;;;;;6282162;22;20008;-90
2022/10/19 06:24:30;;;;;;;7.28;3.60;;;;;;;;;;6282146;22;20144;-90
2022/10/19 06:26:59;;;;;;;10.48;4.50;;;;;;;;;;6280728;22;20011;-91
2022/10/19 06:29:25;;;;;;;7.28;3.60;;;;;;;;;;6281636;22;20031;-89
2022/10/19 06:31:53;;;;;;;5.50;3.42;;;;;;;;;;6281896;22;20007;-89
2022/10/19 06:34:19;;;;;;;10.48;4.13;;;;;;;;;;6282297;22;20091;-89
2022/10/19 06:36:48;;;;;;;6.72;3.13;;;;;;;;;;6285796;22;20038;-89
2022/10/19 06:39:14;;;;;;;8.73;3.83;;;;;;;;;;6292081;22;20000;-90
2022/10/19 06:41:40;;;;;;;5.00;3.53;;;;;;;;;;6281426;22;20026;-89
2022/10/19 06:44:06;;;;;;;6.88;3.58;;;;;;;;;;6281557;22;20057;-92
2022/10/19 06:46:32;;;;;;;5.72;3.08;;;;;;;;;;6281467;22;20004;-90
2022/10/19 06:49:03;;;;;;;6.70;3.28;;;;;;;;;;6281294;22;20064;-93
2022/10/19 06:51:31;;;;;;;4.50;2.72;;;;;;;;;;6281501;22;20078;-90
2022/10/19 06:54:00;;;;;;;6.22;2.97;;;;;;;;;;6281685;22;20008;-90
2022/10/19 06:56:29;;;;;;;5.72;3.22;;;;;;;;;;6281941;22;20377;-90
2022/10/19 06:58:55;;;;;;;5.07;3.03;;;;;;;;;;6310471;22;20021;-91
2022/10/19 07:01:21;;;;;;;5.88;2.90;;;;;;;;;;6282552;22;19999;-90
2022/10/19 07:03:51;;;;;;;5.63;2.83;;;;;;;;;;6276650;22;20019;-92
2022/10/19 07:06:17;;;;;;;5.32;2.80;;;;;;;;;;6251156;22;20016;-91
2022/10/19 07:08:44;;;;;;;5.55;2.78;;;;;;;;;;6250957;22;20004;-90
2022/10/19 07:11:14;;;;;;;4.35;2.63;;;;;;;;;;6251072;22;20089;-90
2022/10/19 07:13:40;;;;;;;7.57;3.05;;;;;;;;;;6250991;22;20006;-92
2022/10/19 07:16:16;;;;;;;3.55;2.00;;;;;;;;;;6251184;22;20007;-91
2022/10/19 07:18:46;;;;;;;3.17;1.77;;;;;;;;;;6250516;22;20015;-91
2022/10/19 07:21:13;;;;;;;3.40;1.92;;;;;;;;;;6250936;22;20320;-90
2022/10/19 07:23:40;;;;;;;3.53;2.05;;;;;;;;;;6250621;22;20008;-90
2022/10/19 07:26:29;;;;;;;3.40;2.20;;;;;;;;;;6250904;22;20416;-91
2022/10/19 07:28:58;;;;;;;5.97;3.00;;;;;;;;;;6252434;22;20106;-90
2022/10/19 07:31:28;;;;;;;6.45;1.92;;;;;;;;;;6248427;22;20015;-89
2022/10/19 07:33:55;;;;;;;5.68;2.60;;;;;;;;;;6252687;22;20027;-90
2022/10/19 07:36:25;;;;;;;3.65;2.00;;;;;;;;;;6252423;22;20015;-90
2022/10/19 07:38:51;;;;;;;5.13;2.50;;;;;;;;;;6252590;22;20006;-90
2022/10/19 07:41:18;;;;;;;4.35;1.90;;;;;;;;;;6252080;22;20218;-90
2022/10/19 07:43:48;;;;;;;3.22;1.95;;;;;;;;;;6252212;22;20079;-90
2022/10/19 07:46:15;;;;;;;2.45;1.40;;;;;;;;;;6252639;22;20298;-90
2022/10/19 07:48:42;;;;;;;4.68;2.17;;;;;;;;;;6252519;22;20008;-89
2022/10/19 07:51:09;;;;;;;4.50;1.77;;;;;;;;;;6252669;22;20011;-90
2022/10/19 07:53:35;;;;;;;8.25;1.75;;;;;;;;;;6251829;22;20021;-90
2022/10/19 07:56:09;;;;;;;2.33;1.27;;;;;;;;;;6252257;22;20000;-91
2022/10/19 07:58:36;;;;;;;2.83;1.50;;;;;;;;;;6252930;22;20067;-90
2022/10/19 08:01:31;;;;;;;3.03;1.75;;;;;;;;;;6252940;22;20074;-92
2022/10/19 08:03:57;;;;;;;2.90;1.60;;;;;;;;;;6248566;22;20008;-91
2022/10/19 08:06:24;;;;;;;6.50;2.25;;;;;;;;;;6252370;22;20026;-90
2022/10/19 08:08:52;;;;;;;3.15;2.08;;;;;;;;;;6253852;22;20061;-88
2022/10/19 08:11:20;;;;;;;3.75;2.03;;;;;;;;;;6252259;22;20012;-91
2022/10/19 08:13:46;;;;;;;3.13;2.00;;;;;;;;;;6252424;22;20008;-92
2022/10/19 08:16:36;;;;;;;3.83;2.00;;;;;;;;;;6252831;22;20054;-91
2022/10/19 08:19:12;;;;;;;4.90;1.77;;;;;;;;;;6252542;22;20039;-91
2022/10/19 08:21:42;;;;;;;2.95;1.83;;;;;;;;;;6252459;22;20432;-90
2022/10/19 08:24:23;;;;;;;4.70;2.45;;;;;;;;;;6215437;23;20020;-90
2022/10/19 08:26:54;;;;;;;3.90;2.42;;;;;;;;;;6203869;23;20005;-88
2022/10/19 08:29:23;;;;;;;3.30;2.05;;;;;;;;;;6190699;23;20005;-87
2022/10/19 08:31:49;;;;;;;5.68;2.03;;;;;;;;;;6189843;23;20079;-87
2022/10/19 08:34:19;;;;;;;6.65;3.22;;;;;;;;;;6190130;23;20004;-89
2022/10/19 08:36:48;;;;;;;3.97;2.60;;;;;;;;;;6190428;23;20091;-90
2022/10/19 08:39:16;;;;;;;6.32;2.92;;;;;;;;;;6190520;23;20189;-89
2022/10/19 08:42:00;;;;;;;7.97;4.15;;;;;;;;;;6190554;23;20338;-91
2022/10/19 08:44:44;;;;;;;3.95;2.60;;;;;;;;;;6190614;23;20012;-93
2022/10/19 08:47:20;;;;;;;3.47;2.10;;;;;;;;;;6191332;23;20024;-90
2022/10/19 08:49:49;;;;;;;5.25;3.20;;;;;;;;;;6190595;23;20128;-90
2022/10/19 08:52:23;;;;;;;3.55;2.47;;;;;;;;;;6190157;23;20437;-92
2022/10/19 08:55:27;;;;;;;5.30;2.95;;;;;;;;;;6213331;22;20149;-92
2022/10/19 08:58:15;;;;;;;6.53;2.25;;;;;;;;;;6129525;22;20413;-92
2022/10/19 09:00:47;;;;;;;3.85;2.38;;;;;;;;;;6252103;22;20435;-89
2022/10/19 09:03:22;;;;;;;3.57;2.57;;;;;;;;;;6251233;22;20014;-89
2022/10/19 09:05:54;;;;;;;4.80;1.95;;;;;;;;;;6279328;22;20019;-90
2022/10/19 09:08:21;;;;;;;4.18;2.35;;;;;;;;;;6281927;22;20007;-90
2022/10/19 09:10:50;;;;;;;8.13;2.95;;;;;;;;;;6281986;22;20003;-89
2022/10/19 09:13:20;;;;;;;4.55;2.38;;;;;;;;;;6281942;22;20015;-90
2022/10/19 09:15:47;;;;;;;5.28;3.15;;;;;;;;;;6282647;22;20424;-88
2022/10/19 09:18:21;;;;;;;5.07;2.85;;;;;;;;;;6282052;22;20015;-90
2022/10/19 09:20:52;;;;;;;4.85;2.38;;;;;;;;;;6282185;22;20003;-90
2022/10/19 09:23:40;;;;;;;5.53;2.70;;;;;;;;;;6282337;22;20011;-89
2022/10/19 09:26:12;;;;;;;5.25;2.35;;;;;;;;;;6281951;22;20000;-90
2022/10/19 09:28:44;;;;;;;4.90;2.47;;;;;;;;;;6281678;22;20007;-90
2022/10/19 09:34:05;;;;;;;6.60;3.13;;;;;;;;;;6309359;22;19987;-90
2022/10/19 09:36:42;;;;;;;4.88;2.88;;;;;;;;;;6281485;22;20390;-88
2022/10/19 09:39:34;;;;;;;4.43;2.30;;;;;;;;;;6281795;22;20109;-91
2022/10/19 09:42:05;;;;;;;5.20;2.78;;;;;;;;;;6275490;22;20003;-89
2022/10/19 09:44:34;;;;;;;4.50;2.17;;;;;;;;;;6281719;22;20003;-89
2022/10/19 09:47:20;;;;;;;5.97;2.60;;;;;;;;;;6281893;22;19999;-88
2022/10/19 09:49:52;;;;;;;5.22;2.60;;;;;;;;;;6280950;22;20097;-89
2022/10/19 09:52:31;;;;;;;4.90;2.00;;;;;;;;;;6280849;22;20000;-89
2022/10/19 09:55:15;;;;;;;3.97;2.00;;;;;;;;;;6282953;22;20026;-89
2022/10/19 09:57:48;;;;;;;5.60;2.42;;;;;;;;;;6282298;22;20015;-90
2022/10/19 10:00:36;;;;;;;3.70;2.45;;;;;;;;;;6282268;22;20010;-90
2022/10/19 10:03:06;;;;;;;4.47;2.42;;;;;;;;;;6273468;22;20624;-89
2022/10/19 10:05:42;;;;;;;4.38;2.40;;;;;;;;;;6286398;22;20015;-88
2022/10/19 10:08:16;;;;;;;4.50;2.95;;;;;;;;;;6250940;22;20035;-88
2022/10/19 10:10:50;;;;;;;3.70;2.70;;;;;;;;;;6251591;22;20004;-88
2022/10/19 10:13:23;;;;;;;7.57;3.00;;;;;;;;;;6251897;22;20007;-89
2022/10/19 10:15:53;;;;;;;5.72;3.03;;;;;;;;;;6266496;22;20003;-88
2022/10/19 10:18:28;;;;;;;7.00;3.30;;;;;;;;;;6251521;22;20031;-88
2022/10/19 10:21:04;;;;;;;10.32;3.33;;;;;;;;;;6252217;22;20126;-90
2022/10/19 10:23:35;;;;;;;5.07;3.60;;;;;;;;;;6251766;22;20029;-87
2022/10/19 10:26:02;;;;;;;7.25;3.85;;;;;;;;;;6251165;22;20026;-87
2022/10/19 10:28:29;;;;;;;6.57;3.30;;;;;;;;;;6250834;22;20432;-88
2022/10/19 10:30:59;;;;;;;5.72;3.80;;;;;;;;;;6251420;22;20083;-89
2022/10/19 10:33:26;;;;;;;7.47;3.55;;;;;;;;;;6251125;22;20008;-87
2022/10/19 10:35:56;;;;;;;6.68;3.75;;;;;;;;;;6250951;22;20004;-88
2022/10/19 10:38:36;;;;;;;5.85;3.20;;;;;;;;;;6251068;22;20022;-89
2022/10/19 10:41:07;;;;;;;6.43;4.10;;;;;;;;;;6277781;22;19995;-89
2022/10/19 10:43:34;;;;;;;7.38;4.40;;;;;;;;;;6251045;22;20490;-91
2022/10/19 10:46:03;;;;;;;6.50;3.65;;;;;;;;;;6251202;22;20014;-87
2022/10/19 10:48:41;;;;;;;5.60;3.50;;;;;;;;;;6250972;22;20008;-89
2022/10/19 10:51:12;;;;;;;6.68;3.45;;;;;;;;;;6251201;22;20004;-89
2022/10/19 10:53:42;;;;;;;6.38;3.50;;;;;;;;;;6277904;22;20003;-91
2022/10/19 10:56:22;;;;;;;7.95;2.78;;;;;;;;;;6251504;22;20004;-88
2022/10/19 10:59:07;;;;;;;4.88;2.90;;;;;;;;;;6249860;22;20012;-89
2022/10/19 11:01:39;;;;;;;4.85;2.78;;;;;;;;;;6250731;22;20087;-91
2022/10/19 11:04:15;;;;;;;6.40;2.92;;;;;;;;;;6256314;22;20004;-92
2022/10/19 11:06:46;;;;;;;4.43;2.50;;;;;;;;;;6283265;22;20011;-90
2022/10/19 11:09:38;;;;;;;4.97;2.88;;;;;;;;;;6287894;22;20056;-90
2022/10/19 11:12:27;;;;;;;4.90;2.60;;;;;;;;;;6226561;22;20030;-90
2022/10/19 11:15:00;;;;;;;4.68;2.58;;;;;;;;;;6282818;22;20129;-90
2022/10/19 11:17:30;;;;;;;4.97;2.58;;;;;;;;;;6283222;22;20012;-89
2022/10/19 11:19:57;;;;;;;5.25;2.60;;;;;;;;;;6283818;22;20000;-90
2022/10/19 11:22:41;;;;;;;5.35;2.97;;;;;;;;;;6283302;22;20329;-90
2022/10/19 11:25:19;;;;;;;6.30;2.83;;;;;;;;;;6283827;22;20003;-90
2022/10/19 11:28:04;;;;;;;4.63;2.60;;;;;;;;;;6283591;22;20086;-88
2022/10/19 11:30:46;;;;;;;8.68;2.63;;;;;;;;;;6283066;22;20011;-90
2022/10/19 11:33:12;;;;;;;5.10;3.08;;;;;;;;;;6282218;22;20006;-90
2022/10/19 11:35:45;;;;;;;5.35;2.70;;;;;;;;;;6283302;22;20018;-90
2022/10/19 11:38:14;;;;;;;4.90;2.83;;;;;;;;;;6283289;22;20525;-90
2022/10/19 11:41:06;;;;;;;6.07;2.42;;;;;;;;;;6283244;22;20003;-89
2022/10/19 11:43:32;;;;;;;6.75;2.80;;;;;;;;;;6242358;22;20004;-92
2022/10/19 11:46:01;;;;;;;3.75;2.88;;;;;;;;;;6283182;22;20031;-89
2022/10/19 11:48:27;;;;;;;6.80;2.72;;;;;;;;;;6283691;22;20034;-92
2022/10/19 11:51:04;;;;;;;4.78;2.80;;;;;;;;;;6283100;22;19999;-91
2022/10/19 11:53:55;;;;;;;4.85;3.08;;;;;;;;;;6283392;22;20003;-91
2022/10/19 11:56:27;;;;;;;5.82;3.30;;;;;;;;;;6283114;22;20018;-92
2022/10/19 11:59:15;;;;;;;7.20;3.50;;;;;;;;;;6311561;22;19999;-95
2022/10/19 12:02:08;;;;;;;6.85;3.63;;;;;;;;;;6314256;22;20024;-95
2022/10/19 12:04:59;;;;;;;6.18;3.47;;;;;;;;;;6300494;22;20023;-88
2022/10/19 12:07:54;;;;;;;5.68;3.25;;;;;;;;;;6284918;22;20050;-91
2022/10/19 12:10:45;;;;;;;7.55;4.00;;;;;;;;;;6228784;22;20007;-90
2022/10/19 12:13:16;;;;;;;8.73;4.13;;;;;;;;;;6282336;22;20003;-88
2022/10/19 12:15:53;;;;;;;7.18;3.88;;;;;;;;;;6282903;22;20085;-90
2022/10/19 12:18:38;;;;;;;7.25;4.20;;;;;;;;;;6283220;22;20015;-90
2022/10/19 12:21:09;;;;;;;8.57;3.95;;;;;;;;;;6282926;22;20018;-92
2022/10/19 12:23:39;;;;;;;6.68;3.65;;;;;;;;;;6283141;22;20026;-90
2022/10/19 12:26:13;;;;;;;9.63;3.80;;;;;;;;;;6282627;22;20007;-93
2022/10/19 12:28:43;;;;;;;8.48;4.15;;;;;;;;;;6283237;22;20006;-89
2022/10/19 12:31:13;;;;;;;7.13;4.03;;;;;;;;;;6282741;22;20003;-89
2022/10/19 12:33:54;;;;;;;8.45;4.22;;;;;;;;;;6282843;22;19999;-90
2022/10/19 12:36:29;;;;;;;7.80;4.35;;;;;;;;;;6282490;22;20011;-88
2022/10/19 12:39:14;;;;;;;10.02;4.10;;;;;;;;;;6283548;22;20042;-90
2022/10/19 12:42:09;;;;;;;8.18;4.53;;;;;;;;;;6283144;22;20023;-92
2022/10/19 12:44:54;;;;;;;9.13;4.30;;;;;;;;;;6274060;22;20007;-91
2022/10/19 12:47:24;;;;;;;7.53;4.20;;;;;;;;;;6283305;22;20003;-90
2022/10/19 12:49:56;;;;;;;8.15;4.30;;;;;;;;;;6282452;22;20003;-90
2022/10/19 12:52:45;;;;;;;8.05;4.25;;;;;;;;;;6284189;22;20030;-87
2022/10/19 12:55:17;;;;;;;8.38;4.30;;;;;;;;;;6309641;22;20424;-87
2022/10/19 12:57:48;;;;;;;5.82;3.67;;;;;;;;;;6283258;22;20015;-93
2022/10/19 13:00:24;;;;;;;9.32;4.00;;;;;;;;;;6283576;22;20025;-92
2022/10/19 13:02:56;;;;;;;8.40;3.92;;;;;;;;;;6283629;22;20420;-93
2022/10/19 13:05:35;;;;;;;8.95;4.32;;;;;;;;;;6291112;22;20425;-94
2022/10/19 13:08:05;;;;;;;6.75;3.92;;;;;;;;;;6252180;22;20006;-92
2022/10/19 13:10:32;;;;;;;6.72;3.60;;;;;;;;;;6252665;22;20007;-89
2022/10/19 13:12:58;;;;;;;12.95;3.75;;;;;;;;;;6252024;22;20004;-92
2022/10/19 13:15:39;;;;;;;7.82;3.83;;;;;;;;;;6252571;22;20024;-92
2022/10/19 13:18:16;;;;;;;7.63;3.95;;;;;;;;;;6253648;22;20018;-90
2022/10/19 13:20:51;;;;;;;7.97;3.53;;;;;;;;;;6252328;22;20083;-92
2022/10/19 13:23:17;;;;;;;8.88;3.42;;;;;;;;;;6279834;22;20031;-92
2022/10/19 13:25:43;;;;;;;7.47;3.72;;;;;;;;;;6252736;22;20436;-90
2022/10/19 13:28:09;;;;;;;8.98;3.97;;;;;;;;;;6251867;22;20004;-89
2022/10/19 13:30:40;;;;;;;6.97;3.50;;;;;;;;;;6252435;22;20007;-95
2022/10/19 13:33:28;;;;;;;5.57;3.25;;;;;;;;;;6252029;22;20011;-91
2022/10/19 13:36:01;;;;;;;5.38;3.22;;;;;;;;;;6279283;22;19999;-93
2022/10/19 13:38:27;;;;;;;7.07;3.63;;;;;;;;;;6279146;22;20413;-90
2022/10/19 13:41:00;;;;;;;6.82;3.05;;;;;;;;;;6279506;22;20004;-93
2022/10/19 13:43:31;;;;;;;5.28;3.10;;;;;;;;;;6252687;22;20141;-93
2022/10/19 13:46:15;;;;;;;9.02;3.42;;;;;;;;;;6252494;22;19999;-91
2022/10/19 13:48:54;;;;;;;6.88;2.97;;;;;;;;;;6252782;22;20393;-92
2022/10/19 13:51:39;;;;;;;6.57;3.47;;;;;;;;;;6253025;22;20082;-95
2022/10/19 13:54:24;;;;;;;5.63;2.70;;;;;;;;;;6257702;22;20033;-89
2022/10/19 13:57:03;;;;;;;6.47;3.00;;;;;;;;;;6267427;22;20012;-92
2022/10/19 13:59:58;;;;;;;4.78;2.90;;;;;;;;;;6253749;22;20004;-89
2022/10/19 14:02:25;;;;;;;6.55;3.22;;;;;;;;;;6121736;22;20030;-95
2022/10/19 14:04:57;;;;;;;5.78;2.90;;;;;;;;;;6264372;22;20046;-93
2022/10/19 14:07:30;;;;;;;6.07;2.88;;;;;;;;;;6283202;22;20003;-90
2022/10/19 14:10:07;;;;;;;9.38;3.45;;;;;;;;;;6282964;22;20005;-88
2022/10/19 14:12:40;;;;;;;9.35;3.05;;;;;;;;;;6282615;22;20364;-93
2022/10/19 14:15:32;;;;;;;5.78;2.67;;;;;;;;;;6282607;22;20486;-92
2022/10/19 14:17:59;;;;;;;6.78;2.40;;;;;;;;;;6276428;22;20022;-92
2022/10/19 14:20:29;;;;;;;6.68;2.40;;;;;;;;;;6310425;22;20005;-94
2022/10/19 14:22:55;;;;;;;5.82;2.95;;;;;;;;;;6283312;22;20011;-93
2022/10/19 14:25:23;;;;;;;7.07;3.10;;;;;;;;;;6282556;22;19995;-92
2022/10/19 14:28:04;;;;;;;14.32;3.70;;;;;;;;;;6285193;22;20009;-94
2022/10/19 14:33:54;;;;;;;6.47;2.92;;;;;;;;;;6310229;22;20021;-91
2022/10/19 14:36:23;;;;;;;8.27;3.17;;;;;;;;;;6309563;22;20000;-94
2022/10/19 14:38:52;;;;;;;7.85;2.88;;;;;;;;;;6281909;22;20041;-92
2022/10/19 14:41:33;;;;;;;7.50;2.58;;;;;;;;;;6281680;22;20442;-94
2022/10/19 14:44:01;;;;;;;6.20;2.35;;;;;;;;;;6282558;22;20049;-92
2022/10/19 14:46:31;;;;;;;6.07;2.70;;;;;;;;;;6282548;22;20010;-95
2022/10/19 14:49:02;;;;;;;7.97;2.47;;;;;;;;;;6283058;22;20014;-91
2022/10/19 14:51:34;;;;;;;6.25;2.60;;;;;;;;;;6282109;22;20145;-93
2022/10/19 14:54:06;;;;;;;9.45;2.38;;;;;;;;;;6283207;22;20018;-88
2022/10/19 14:56:34;;;;;;;7.38;2.60;;;;;;;;;;6282281;22;20313;-93
2022/10/19 14:59:25;;;;;;;6.35;2.72;;;;;;;;;;6315172;22;20018;-95
2022/10/19 15:02:24;;;;;;;7.32;3.00;;;;;;;;;;6322215;22;19987;-95
2022/10/19 15:04:52;;;;;;;6.57;3.00;;;;;;;;;;6210850;23;20008;-95
2022/10/19 15:11:03;;;;;;;7.72;3.22;;;;;;;;;;6157161;23;20044;-93
2022/10/19 15:13:32;;;;;;;5.68;2.42;;;;;;;;;;6155792;23;20039;-90
2022/10/19 15:16:02;;;;;;;6.00;2.55;;;;;;;;;;6155740;23;20008;-93
2022/10/19 15:19:08;;;;;;;11.02;2.75;;;;;;;;;;6190035;23;20016;-91
2022/10/19 15:21:37;;;;;;;6.30;2.65;;;;;;;;;;6202631;22;20434;-88
2022/10/19 15:24:08;;;;;;;7.10;2.65;;;;;;;;;;6220716;23;20057;-89
2022/10/19 15:26:43;;;;;;;7.57;3.45;;;;;;;;;;6220767;23;20005;-89
2022/10/19 15:29:11;;;;;;;14.23;3.38;;;;;;;;;;6220844;23;20020;-90
2022/10/19 15:31:43;;;;;;;9.98;3.60;;;;;;;;;;6220766;23;20001;-89
2022/10/19 15:34:24;;;;;;;4.75;2.53;;;;;;;;;;6219082;23;20005;-91
2022/10/19 15:37:02;;;;;;;8.90;2.67;;;;;;;;;;6304818;22;20011;-90
2022/10/19 15:39:43;;;;;;;4.07;2.08;;;;;;;;;;6313541;22;20034;-90
2022/10/19 15:42:28;;;;;;;3.70;2.30;;;;;;;;;;6313405;22;20037;-92
2022/10/19 15:44:54;;;;;;;5.50;2.35;;;;;;;;;;6333799;22;20006;-88
2022/10/19 15:47:21;;;;;;;4.63;2.10;;;;;;;;;;6317702;22;20450;-91
2022/10/19 15:49:52;;;;;;;3.70;1.80;;;;;;;;;;6315464;22;20006;-92
2022/10/19 15:52:22;;;;;;;5.28;1.90;;;;;;;;;;6343070;22;20002;-94
2022/10/19 15:54:49;;;;;;;8.98;2.17;;;;;;;;;;6315202;22;20031;-94
2022/10/19 15:57:29;;;;;;;4.60;1.80;;;;;;;;;;6314079;22;20011;-92
2022/10/19 16:00:11;;;;;;;9.02;2.00;;;;;;;;;;6313640;22;20011;-89
2022/10/19 16:02:38;;;;;;;6.75;2.20;;;;;;;;;;6303574;22;20011;-89
2022/10/19 16:05:07;;;;;;;6.70;2.10;;;;;;;;;;6314906;22;20003;-87
2022/10/19 16:07:35;;;;;;;5.13;1.80;;;;;;;;;;6314901;22;20007;-92
2022/10/19 16:10:01;;;;;;;3.45;2.03;;;;;;;;;;6314380;22;20007;-94
2022/10/19 16:12:28;;;;;;;7.30;2.10;;;;;;;;;;6313991;22;20082;-91
2022/10/19 16:14:55;;;;;;;9.13;2.10;;;;;;;;;;6312448;22;20540;-89
2022/10/19 16:17:21;;;;;;;15.63;2.35;;;;;;;;;;6313584;22;20039;-89
2022/10/19 16:19:47;;;;;;;6.72;1.92;;;;;;;;;;6315051;22;19999;-88
2022/10/19 16:22:16;;;;;;;3.60;1.90;;;;;;;;;;6316022;22;20030;-91
2022/10/19 16:24:46;;;;;;;3.53;1.45;;;;;;;;;;6320980;22;19999;-89
2022/10/19 16:27:18;;;;;;;3.80;1.77;;;;;;;;;;6316430;22;19998;-88
2022/10/19 16:29:44;;;;;;;4.90;1.65;;;;;;;;;;6344720;22;20442;-88
2022/10/19 16:32:13;;;;;;;7.55;1.83;;;;;;;;;;6316076;22;20009;-90
2022/10/19 16:34:42;;;;;;;4.50;1.70;;;;;;;;;;6314150;22;20064;-88
2022/10/19 16:37:08;;;;;;;2.90;1.60;;;;;;;;;;6313961;22;20038;-87
2022/10/19 16:39:36;;;;;;;3.72;1.70;;;;;;;;;;6315438;22;20030;-95
2022/10/19 16:42:02;;;;;;;8.15;1.65;;;;;;;;;;6289621;22;20015;-91
2022/10/19 16:44:28;;;;;;;3.80;1.60;;;;;;;;;;6318182;22;20003;-90
2022/10/19 16:46:58;;;;;;;4.60;1.80;;;;;;;;;;6316174;22;20002;-91
2022/10/19 16:49:24;;;;;;;4.28;1.60;;;;;;;;;;6315706;22;20002;-91
2022/10/19 16:51:56;;;;;;;3.67;1.73;;;;;;;;;;6315594;22;20352;-87
2022/10/19 16:54:52;;;;;;;4.20;1.60;;;;;;;;;;6314357;22;20010;-91
2022/10/19 16:57:21;;;;;;;6.93;1.63;;;;;;;;;;6315657;22;20022;-90
2022/10/19 16:59:50;;;;;;;6.00;2.08;;;;;;;;;;6311894;22;20011;-91
2022/10/19 17:02:20;;;;;;;3.45;1.60;;;;;;;;;;6316184;22;20007;-94
2022/10/19 17:04:46;;;;;;;5.28;1.50;;;;;;;;;;6316542;22;20006;-93
2022/10/19 17:07:13;;;;;;;8.75;1.77;;;;;;;;;;6319914;22;20752;-95
2022/10/19 17:09:51;;;;;;;4.15;1.85;;;;;;;;;;6318043;22;19987;-92
2022/10/19 17:12:22;;;;;;;4.40;1.80;;;;;;;;;;6318031;22;20006;-95
2022/10/19 17:14:50;;;;;;;7.00;1.90;;;;;;;;;;6288910;22;20004;-95
2022/10/19 17:17:19;;;;;;;5.88;2.28;;;;;;;;;;6320149;22;20026;-91
2022/10/19 17:19:47;;;;;;;7.10;2.60;;;;;;;;;;6314710;22;20003;-92
2022/10/19 17:22:13;;;;;;;5.85;1.92;;;;;;;;;;6314261;22;20003;-89
2022/10/19 17:24:39;;;;;;;9.70;2.60;;;;;;;;;;6315232;22;20010;-95
2022/10/19 17:27:05;;;;;;;6.28;2.58;;;;;;;;;;6315641;22;20009;-94
2022/10/19 17:29:31;;;;;;;4.32;2.03;;;;;;;;;;6317690;22;20427;-89
2022/10/19 17:31:58;;;;;;;6.28;2.42;;;;;;;;;;6333242;22;20003;-91
2022/10/19 17:34:24;;;;;;;8.48;2.33;;;;;;;;;;6315375;22;20030;-94
2022/10/19 17:36:51;;;;;;;5.68;2.17;;;;;;;;;;6312940;22;20002;-94
2022/10/19 17:39:22;;;;;;;4.47;1.75;;;;;;;;;;6314513;22;20155;-88
2022/10/19 17:41:48;;;;;;;5.32;2.10;;;;;;;;;;6313832;22;20003;-90
2022/10/19 17:44:21;;;;;;;6.30;2.03;;;;;;;;;;6315054;22;20052;-93
2022/10/19 17:46:48;;;;;;;7.10;2.90;;;;;;;;;;6314518;22;20007;-94
2022/10/19 17:49:15;;;;;;;5.38;1.77;;;;;;;;;;6314956;22;20363;-95
2022/10/19 17:51:46;;;;;;;8.02;2.28;;;;;;;;;;6314406;22;20006;-92
2022/10/19 17:54:14;;;;;;;6.38;2.13;;;;;;;;;;6292128;22;20066;-94
2022/10/19 17:56:43;;;;;;;5.75;2.15;;;;;;;;;;6315486;22;20021;-89
2022/10/19 17:59:09;;;;;;;6.13;2.08;;;;;;;;;;6318867;22;20002;-87
2022/10/19 18:01:48;;;;;;;5.32;2.03;;;;;;;;;;6315941;22;20003;-91
2022/10/19 18:04:23;;;;;;;4.82;2.33;;;;;;;;;;6313291;22;19998;-91
2022/10/19 18:06:52;;;;;;;6.28;2.13;;;;;;;;;;6313377;22;19999;-90
2022/10/19 18:09:34;;;;;;;4.72;2.13;;;;;;;;;;6314008;22;20014;-87
2022/10/19 18:12:12;;;;;;;4.45;1.55;;;;;;;;;;6316882;22;20056;-96
2022/10/19 18:14:41;;;;;;;5.95;1.80;;;;;;;;;;6323061;22;19999;-94
2022/10/19 18:17:08;;;;;;;5.35;1.90;;;;;;;;;;6333043;22;20041;-95
2022/10/19 18:19:34;;;;;;;6.53;3.03;;;;;;;;;;6290517;22;20023;-96
2022/10/19 18:22:03;;;;;;;5.53;2.53;;;;;;;;;;6314515;22;20003;-94
2022/10/19 18:24:54;;;;;;;6.00;2.40;;;;;;;;;;6313909;22;20082;-86
2022/10/19 18:27:20;;;;;;;4.97;2.58;;;;;;;;;;6314162;22;19998;-89
2022/10/19 18:29:46;;;;;;;7.57;2.47;;;;;;;;;;6313161;22;20450;-93
2022/10/19 18:32:22;;;;;;;4.22;2.35;;;;;;;;;;6316676;22;20003;-90
2022/10/19 18:38:08;;;;;;;8.50;2.58;;;;;;;;;;6356519;22;20014;-88
2022/10/19 18:43:38;;;;;;;4.95;2.60;;;;;;;;;;6345893;22;20009;-87
2022/10/19 18:46:24;;;;;;;9.10;2.50;;;;;;;;;;6349810;22;20079;-89
2022/10/19 18:48:53;;;;;;;6.13;2.70;;;;;;;;;;6320907;22;20003;-87
2022/10/19 18:51:20;;;;;;;4.60;2.70;;;;;;;;;;6319989;22;20014;-87
2022/10/19 18:53:49;;;;;;;6.90;2.80;;;;;;;;;;6316214;22;20041;-93
2022/10/19 18:56:22;;;;;;;9.02;5.10;;;;;;;;;;6315093;22;20010;-94
2022/10/19 18:58:49;;;;;;;11.00;4.82;;;;;;;;;;6312391;22;20030;-90
2022/10/19 19:01:16;;;;;;;15.98;4.35;;;;;;;;;;6313829;22;20424;-86
2022/10/19 19:03:44;;;;;;;13.13;4.78;;;;;;;;;;6312989;22;20308;-91
2022/10/19 19:06:15;;;;;;;7.90;3.53;;;;;;;;;;6312886;22;20363;-87
2022/10/19 19:08:41;;;;;;;6.50;2.83;;;;;;;;;;6312838;22;20032;-88
2022/10/19 19:11:20;;;;;;;5.63;3.35;;;;;;;;;;6313422;22;20092;-90
2022/10/19 19:13:48;;;;;;;6.40;3.33;;;;;;;;;;6313076;22;20002;-93